createdAt,value
2023-02-13T00:00:21.645Z,5.20
2023-02-13T00:02:48.320Z,5.00
2023-02-13T00:05:15.724Z,5.00
2023-02-13T00:07:42.426Z,5.00
2023-02-13T00:10:09.697Z,5.00
2023-02-13T00:12:36.834Z,4.90
2023-02-13T00:15:04.340Z,4.80
2023-02-13T00:17:31.368Z,4.70
2023-02-13T00:19:58.068Z,4.60
2023-02-13T00:22:24.845Z,4.60
2023-02-13T00:24:51.502Z,4.50
2023-02-13T00:27:18.350Z,4.40
2023-02-13T00:29:45.036Z,4.30
2023-02-13T00:32:12.039Z,4.10
2023-02-13T00:34:38.764Z,4.10
2023-02-13T00:37:05.630Z,4.00
2023-02-13T00:39:32.315Z,3.80
2023-02-13T00:41:58.947Z,3.80
2023-02-13T00:44:25.608Z,3.90
2023-02-13T00:46:52.297Z,3.90
2023-02-13T00:49:18.996Z,3.80
2023-02-13T00:51:45.729Z,3.80
2023-02-13T00:54:12.434Z,3.60
2023-02-13T00:56:39.162Z,3.50
2023-02-13T00:59:05.998Z,3.40
2023-02-13T01:01:32.817Z,3.40
2023-02-13T01:03:59.794Z,3.40
2023-02-13T01:06:26.536Z,3.30
2023-02-13T01:08:53.208Z,3.30
2023-02-13T01:11:19.907Z,3.30
2023-02-13T01:13:46.903Z,3.50
2023-02-13T01:16:15.914Z,3.30
2023-02-13T01:18:42.728Z,3.10
2023-02-13T01:21:18.804Z,2.90
2023-02-13T01:23:46.036Z,2.80
2023-02-13T01:26:22.421Z,2.70
2023-02-13T01:28:53.405Z,2.70
2023-02-13T01:31:20.437Z,2.80
2023-02-13T01:33:47.212Z,2.80
2023-02-13T01:36:14.479Z,2.80
2023-02-13T01:38:41.752Z,2.60
2023-02-13T01:41:09.348Z,2.50
2023-02-13T01:43:46.682Z,2.50
2023-02-13T01:46:27.558Z,2.50
2023-02-13T01:48:58.292Z,2.50
2023-02-13T01:51:30.239Z,2.50
2023-02-13T01:54:02.674Z,2.40
2023-02-13T01:56:43.239Z,2.30
2023-02-13T01:59:17.057Z,2.20
2023-02-13T02:01:44.374Z,2.20
2023-02-13T02:04:18.800Z,2.30
2023-02-13T02:06:52.916Z,2.20
2023-02-13T02:09:23.759Z,2.30
2023-02-13T02:12:05.968Z,2.20
2023-02-13T02:14:32.775Z,2.20
2023-02-13T02:16:59.423Z,2.20
2023-02-13T02:19:49.333Z,2.20
2023-02-13T02:22:34.616Z,2.30
2023-02-13T02:25:04.078Z,2.20
2023-02-13T02:27:47.238Z,2.10
2023-02-13T02:30:38.878Z,2.10
2023-02-13T02:33:25.099Z,2.20
2023-02-13T02:36:06.756Z,2.10
2023-02-13T02:39:04.906Z,2.20
2023-02-13T02:42:01.867Z,2.30
2023-02-13T02:45:13.394Z,2.30
2023-02-13T02:48:11.582Z,2.40
2023-02-13T02:50:41.010Z,2.50
2023-02-13T02:53:22.451Z,2.60
2023-02-13T02:55:52.734Z,2.60
2023-02-13T02:58:53.257Z,2.50
2023-02-13T03:01:42.614Z,2.40
2023-02-13T03:05:00.970Z,2.50
2023-02-13T03:07:28.182Z,2.50
2023-02-13T03:10:20.124Z,2.50
2023-02-13T03:13:13.322Z,2.60
2023-02-13T03:16:02.514Z,2.60
2023-02-13T03:18:54.875Z,2.50
2023-02-13T03:22:14.851Z,2.50
2023-02-13T03:25:12.208Z,2.70
2023-02-13T03:28:14.264Z,2.50
2023-02-13T03:31:18.581Z,2.50
2023-02-13T03:33:57.130Z,2.60
2023-02-13T03:37:20.433Z,2.50
2023-02-13T03:40:01.228Z,2.50
2023-02-13T03:42:32.753Z,2.60
2023-02-13T03:45:24.651Z,2.60
2023-02-13T03:47:55.396Z,2.60
2023-02-13T03:50:24.102Z,2.50
2023-02-13T03:53:08.344Z,2.50
2023-02-13T03:55:57.534Z,2.60
2023-02-13T03:58:45.510Z,2.60
2023-02-13T04:01:17.078Z,2.60
2023-02-13T04:04:05.698Z,2.60
2023-02-13T04:06:57.791Z,2.50
2023-02-13T04:09:26.840Z,2.60
2023-02-13T04:12:18.505Z,2.50
2023-02-13T04:15:02.289Z,2.50
2023-02-13T04:17:51.383Z,2.50
2023-02-13T04:20:19.447Z,2.60
2023-02-13T04:22:48.161Z,2.60
2023-02-13T04:25:17.820Z,2.60
2023-02-13T04:27:44.680Z,2.60
2023-02-13T04:30:12.000Z,2.60
2023-02-13T04:32:38.764Z,2.50
2023-02-13T04:35:05.771Z,2.60
2023-02-13T04:37:32.416Z,2.60
2023-02-13T04:39:59.077Z,2.60
2023-02-13T04:42:25.775Z,2.70
2023-02-13T04:44:52.434Z,2.60
2023-02-13T04:47:19.090Z,2.60
2023-02-13T04:49:45.740Z,2.60
2023-02-13T04:52:12.382Z,2.60
2023-02-13T04:54:39.042Z,2.70
2023-02-13T04:57:05.669Z,2.70
2023-02-13T04:59:32.348Z,2.80
2023-02-13T05:01:59.330Z,2.80
2023-02-13T05:04:26.245Z,2.80
2023-02-13T05:06:53.279Z,2.70
2023-02-13T05:09:19.990Z,2.70
2023-02-13T05:11:46.829Z,2.70
2023-02-13T05:14:13.836Z,2.80
2023-02-13T05:16:40.497Z,2.90
2023-02-13T05:19:07.163Z,2.80
2023-02-13T05:21:52.823Z,2.60
2023-02-13T05:24:20.683Z,2.60
2023-02-13T05:26:47.525Z,2.60
2023-02-13T05:29:20.193Z,2.70
2023-02-13T05:31:48.169Z,2.60
2023-02-13T05:34:15.443Z,2.60
2023-02-13T05:36:42.359Z,2.50
2023-02-13T05:39:09.222Z,2.50
2023-02-13T05:41:36.071Z,2.50
2023-02-13T05:44:02.844Z,2.50
2023-02-13T05:46:29.769Z,2.50
2023-02-13T05:48:56.480Z,2.60
2023-02-13T05:51:23.192Z,2.70
2023-02-13T05:53:50.111Z,2.50
2023-02-13T05:56:16.764Z,2.60
2023-02-13T05:58:43.546Z,2.50
2023-02-13T06:01:10.187Z,2.60
2023-02-13T06:03:36.970Z,2.60
2023-02-13T06:06:03.755Z,2.60
2023-02-13T06:08:30.404Z,2.60
2023-02-13T06:10:57.252Z,2.70
2023-02-13T06:13:23.971Z,2.60
2023-02-13T06:15:50.879Z,2.60
2023-02-13T06:18:17.785Z,2.80
2023-02-13T06:20:44.495Z,4.80
2023-02-13T06:23:11.800Z,5.10
2023-02-13T06:25:38.595Z,5.10
2023-02-13T06:28:05.973Z,5.20
2023-02-13T06:30:33.377Z,5.50
2023-02-13T06:33:00.581Z,5.70
2023-02-13T06:35:27.857Z,5.70
2023-02-13T06:37:54.609Z,5.80
2023-02-13T06:40:21.249Z,5.90
2023-02-13T06:42:47.949Z,5.90
2023-02-13T06:45:14.873Z,5.50
2023-02-13T06:47:46.386Z,4.90
2023-02-13T06:50:15.032Z,3.80
2023-02-13T06:52:48.966Z,3.30
2023-02-13T06:55:16.622Z,3.10
2023-02-13T06:57:45.038Z,2.90
2023-02-13T07:00:14.485Z,3.00
2023-02-13T07:02:43.043Z,3.00
2023-02-13T07:05:10.119Z,3.30
2023-02-13T07:07:38.163Z,3.10
2023-02-13T07:10:06.064Z,2.80
2023-02-13T07:12:36.707Z,2.90
2023-02-13T07:15:05.566Z,2.90
2023-02-13T07:17:32.512Z,2.80
2023-02-13T07:19:59.555Z,2.80
2023-02-13T07:22:26.349Z,2.90
2023-02-13T07:24:52.999Z,3.00
2023-02-13T07:27:19.616Z,2.90
2023-02-13T07:29:46.305Z,2.90
2023-02-13T07:32:13.148Z,2.90
2023-02-13T07:34:52.261Z,2.70
2023-02-13T07:37:28.985Z,2.70
2023-02-13T07:39:55.709Z,2.70
2023-02-13T07:42:22.385Z,2.90
2023-02-13T07:44:49.126Z,2.80
2023-02-13T07:47:17.288Z,2.70
2023-02-13T07:49:45.615Z,2.70
2023-02-13T07:52:12.357Z,2.70
2023-02-13T07:54:47.100Z,2.70
2023-02-13T07:57:17.596Z,2.80
2023-02-13T07:59:44.482Z,2.90
2023-02-13T08:02:13.548Z,2.90
2023-02-13T08:04:41.078Z,2.80
2023-02-13T08:07:07.830Z,2.70
2023-02-13T08:09:53.237Z,2.60
2023-02-13T08:12:19.997Z,2.70
2023-02-13T08:14:46.817Z,2.90
2023-02-13T08:17:13.573Z,2.90
2023-02-13T08:19:40.449Z,2.80
2023-02-13T08:22:07.110Z,2.80
2023-02-13T08:24:33.793Z,2.70
2023-02-13T08:27:00.439Z,2.90
2023-02-13T08:29:27.172Z,2.90
2023-02-13T08:31:53.927Z,2.90
2023-02-13T08:34:20.626Z,2.90
2023-02-13T08:36:47.329Z,3.00
2023-02-13T08:39:14.035Z,3.00
2023-02-13T08:41:41.112Z,3.00
2023-02-13T08:44:07.970Z,3.10
2023-02-13T08:46:34.713Z,3.10
2023-02-13T08:49:01.390Z,3.20
2023-02-13T08:51:28.062Z,3.20
2023-02-13T08:53:54.718Z,3.10
2023-02-13T08:56:21.444Z,3.10
2023-02-13T08:58:50.985Z,3.10
2023-02-13T09:01:17.766Z,3.20
2023-02-13T09:03:44.651Z,3.30
2023-02-13T09:06:11.448Z,3.30
2023-02-13T09:08:38.140Z,3.40
2023-02-13T09:11:07.251Z,3.40
2023-02-13T09:13:35.356Z,3.40
2023-02-13T09:16:06.280Z,3.50
2023-02-13T09:18:34.212Z,3.60
2023-02-13T09:21:10.049Z,3.60
2023-02-13T09:23:39.766Z,3.40
2023-02-13T09:26:10.126Z,3.40
2023-02-13T09:28:37.614Z,3.60
2023-02-13T09:31:16.486Z,3.60
2023-02-13T09:33:48.131Z,3.70
2023-02-13T09:36:21.984Z,3.70
2023-02-13T09:38:53.105Z,3.70
2023-02-13T09:41:29.597Z,3.80
2023-02-13T09:44:05.152Z,3.70
2023-02-13T09:46:38.431Z,3.70
2023-02-13T09:49:19.134Z,3.80
2023-02-13T09:51:49.826Z,3.70
2023-02-13T09:54:19.922Z,3.80
2023-02-13T09:57:00.987Z,3.80
2023-02-13T09:59:58.400Z,3.70
2023-02-13T10:02:49.901Z,3.70
2023-02-13T10:05:37.876Z,3.70
2023-02-13T10:08:29.868Z,3.80
2023-02-13T10:11:02.264Z,3.80
2023-02-13T10:13:46.275Z,3.80
2023-02-13T10:16:19.638Z,3.90
2023-02-13T10:18:59.788Z,4.00
2023-02-13T10:21:48.491Z,3.80
2023-02-13T10:24:26.126Z,4.00
2023-02-13T10:26:56.392Z,4.10
2023-02-13T10:29:47.664Z,4.10
2023-02-13T10:32:18.947Z,4.10
2023-02-13T10:34:47.559Z,4.10
2023-02-13T10:37:20.791Z,4.00
2023-02-13T10:39:53.331Z,4.00
2023-02-13T10:42:29.008Z,4.10
2023-02-13T10:45:07.585Z,4.10
2023-02-13T10:47:40.045Z,4.10
2023-02-13T10:50:27.097Z,4.20
2023-02-13T10:53:27.131Z,4.30
2023-02-13T10:56:24.116Z,4.30
2023-02-13T10:59:15.810Z,4.30
2023-02-13T11:02:00.513Z,4.30
2023-02-13T11:04:28.854Z,4.30
2023-02-13T11:07:04.035Z,4.90
2023-02-13T11:09:38.395Z,5.30
2023-02-13T11:12:26.525Z,4.70
2023-02-13T11:14:59.292Z,4.60
2023-02-13T11:17:28.768Z,4.60
2023-02-13T11:19:58.292Z,6.00
2023-02-13T11:22:35.569Z,6.10
2023-02-13T11:25:06.787Z,5.30
2023-02-13T11:27:37.107Z,5.00
2023-02-13T11:30:38.148Z,4.80
2023-02-13T11:33:18.443Z,4.80
2023-02-13T11:35:46.741Z,4.80
2023-02-13T11:38:16.494Z,4.70
2023-02-13T11:40:46.019Z,4.90
2023-02-13T11:43:27.755Z,4.70
2023-02-13T11:46:24.508Z,4.80
2023-02-13T11:49:02.943Z,4.90
2023-02-13T11:51:44.531Z,5.00
2023-02-13T11:54:45.426Z,5.00
2023-02-13T11:57:23.554Z,5.00
2023-02-13T11:59:52.925Z,5.10
2023-02-13T12:02:42.846Z,5.40
2023-02-13T12:05:23.243Z,5.30
2023-02-13T12:07:50.189Z,5.30
2023-02-13T12:10:19.640Z,5.60
2023-02-13T12:13:04.587Z,5.70
2023-02-13T12:15:36.837Z,5.70
2023-02-13T12:18:15.506Z,6.20
2023-02-13T12:20:52.544Z,6.40
2023-02-13T12:23:28.334Z,6.40
2023-02-13T12:26:18.035Z,6.60
2023-02-13T12:28:57.076Z,6.60
2023-02-13T12:31:53.283Z,7.10
2023-02-13T12:34:41.508Z,7.40
2023-02-13T12:37:32.972Z,7.30
2023-02-13T12:40:17.740Z,7.50
2023-02-13T12:43:23.292Z,7.80
2023-02-13T12:46:05.662Z,8.10
2023-02-13T12:48:43.577Z,8.40
2023-02-13T12:51:35.316Z,8.50
2023-02-13T12:54:36.151Z,8.50
2023-02-13T12:57:21.593Z,8.60
2023-02-13T13:00:17.262Z,9.00
2023-02-13T13:03:01.978Z,9.00
2023-02-13T13:05:40.881Z,9.10
2023-02-13T13:08:20.813Z,9.40
2023-02-13T13:11:06.313Z,9.60
2023-02-13T13:13:51.720Z,9.70
2023-02-13T13:16:45.274Z,9.70
2023-02-13T13:19:34.802Z,9.80
2023-02-13T13:22:24.198Z,9.80
2023-02-13T13:25:24.816Z,10.00
2023-02-13T13:28:02.513Z,9.90
2023-02-13T13:30:34.633Z,10.20
2023-02-13T13:33:26.182Z,10.40
2023-02-13T13:36:05.501Z,10.20
2023-02-13T13:38:40.067Z,10.30
2023-02-13T13:41:19.309Z,10.40
2023-02-13T13:44:13.122Z,10.60
2023-02-13T13:47:09.153Z,10.70
2023-02-13T13:49:54.060Z,10.70
2023-02-13T13:52:28.574Z,10.80
2023-02-13T13:54:57.274Z,10.80
2023-02-13T13:57:47.608Z,11.00
2023-02-13T14:00:15.766Z,10.90
2023-02-13T14:02:44.777Z,10.90
2023-02-13T14:05:33.580Z,11.00
2023-02-13T14:08:25.143Z,11.10
2023-02-13T14:10:58.280Z,11.10
2023-02-13T14:13:36.614Z,11.30
2023-02-13T14:16:04.995Z,11.40
2023-02-13T14:18:32.574Z,11.20
2023-02-13T14:21:03.982Z,11.40
2023-02-13T14:23:35.971Z,11.30
2023-02-13T14:26:35.958Z,11.30
2023-02-13T14:29:11.455Z,11.20
2023-02-13T14:31:42.297Z,11.30
2023-02-13T14:34:11.786Z,11.40
2023-02-13T14:36:44.364Z,11.50
2023-02-13T14:39:31.935Z,11.60
2023-02-13T14:42:00.965Z,11.50
2023-02-13T14:44:45.378Z,11.30
2023-02-13T14:47:26.506Z,11.30
2023-02-13T14:49:54.471Z,11.50
2023-02-13T14:52:29.620Z,11.40
2023-02-13T14:55:12.946Z,11.40
2023-02-13T14:57:47.108Z,11.20
2023-02-13T15:00:35.824Z,11.40
2023-02-13T15:03:20.284Z,11.40
2023-02-13T15:05:52.472Z,11.50
2023-02-13T15:08:34.297Z,11.40
2023-02-13T15:11:01.339Z,11.20
2023-02-13T15:13:37.427Z,11.10
2023-02-13T15:16:09.005Z,11.00
2023-02-13T15:18:41.967Z,11.00
2023-02-13T15:21:19.623Z,10.80
2023-02-13T15:23:55.617Z,10.80
2023-02-13T15:26:26.474Z,10.60
2023-02-13T15:29:09.108Z,10.50
2023-02-13T15:31:38.325Z,10.80
2023-02-13T15:34:21.261Z,10.70
2023-02-13T15:36:48.741Z,10.50
2023-02-13T15:39:22.919Z,10.50
2023-02-13T15:41:52.936Z,10.40
2023-02-13T15:44:26.053Z,10.30
2023-02-13T15:46:54.654Z,10.30
2023-02-13T15:49:25.380Z,10.20
2023-02-13T15:52:03.333Z,10.10
2023-02-13T15:54:32.951Z,9.80
2023-02-13T15:57:03.611Z,9.90
2023-02-13T15:59:37.064Z,9.80
2023-02-13T16:02:10.117Z,9.70
2023-02-13T16:04:37.940Z,9.70
2023-02-13T16:07:11.397Z,9.50
2023-02-13T16:09:38.298Z,9.40
2023-02-13T16:12:14.369Z,9.40
2023-02-13T16:14:49.663Z,9.20
2023-02-13T16:17:38.669Z,9.00
2023-02-13T16:20:28.865Z,8.90
2023-02-13T16:23:07.218Z,8.70
2023-02-13T16:25:37.392Z,8.50
2023-02-13T16:28:10.208Z,8.40
2023-02-13T16:30:39.020Z,8.20
2023-02-13T16:33:11.191Z,8.10
2023-02-13T16:35:42.101Z,8.10
2023-02-13T16:38:27.961Z,7.90
2023-02-13T16:40:57.002Z,7.70
2023-02-13T16:43:45.222Z,7.70
2023-02-13T16:46:17.866Z,7.50
2023-02-13T16:48:48.425Z,7.40
2023-02-13T16:51:16.698Z,7.30
2023-02-13T16:53:43.470Z,7.20
2023-02-13T16:56:11.388Z,7.00
2023-02-13T16:58:38.086Z,6.90
2023-02-13T17:01:05.892Z,6.70
2023-02-13T17:03:33.116Z,6.60
2023-02-13T17:06:03.625Z,6.50
2023-02-13T17:08:31.543Z,6.30
2023-02-13T17:11:05.700Z,6.20
2023-02-13T17:13:32.941Z,6.30
2023-02-13T17:16:00.122Z,6.20
2023-02-13T17:18:27.597Z,6.00
2023-02-13T17:20:54.909Z,5.80
2023-02-13T17:23:24.559Z,5.80
2023-02-13T17:25:52.629Z,5.70
2023-02-13T17:28:25.019Z,5.60
2023-02-13T17:30:56.296Z,5.50
2023-02-13T17:33:25.434Z,5.50
2023-02-13T17:35:52.990Z,5.40
2023-02-13T17:38:19.890Z,5.20
2023-02-13T17:40:47.032Z,5.20
2023-02-13T17:43:16.066Z,5.10
2023-02-13T17:45:43.937Z,5.00
2023-02-13T17:48:10.703Z,5.10
2023-02-13T17:50:38.378Z,5.00
2023-02-13T17:53:17.231Z,5.00
2023-02-13T17:55:44.258Z,5.00
2023-02-13T17:58:11.976Z,4.70
2023-02-13T18:00:38.738Z,4.40
2023-02-13T18:03:05.591Z,4.50
2023-02-13T18:05:33.160Z,4.50
2023-02-13T18:08:03.234Z,4.50
2023-02-13T18:10:33.756Z,4.40
2023-02-13T18:13:04.402Z,4.30
2023-02-13T18:15:36.482Z,4.30
2023-02-13T18:18:03.245Z,4.10
2023-02-13T18:20:31.126Z,4.10
2023-02-13T18:22:57.892Z,4.00
2023-02-13T18:25:24.550Z,3.90
2023-02-13T18:27:51.559Z,3.80
2023-02-13T18:30:20.452Z,3.80
2023-02-13T18:32:52.459Z,3.80
2023-02-13T18:35:19.505Z,3.80
2023-02-13T18:37:46.155Z,3.70
2023-02-13T18:40:15.021Z,3.70
2023-02-13T18:42:41.890Z,3.60
2023-02-13T18:45:09.128Z,3.50
2023-02-13T18:47:35.896Z,3.40
2023-02-13T18:50:02.558Z,3.30
2023-02-13T18:52:29.196Z,3.30
2023-02-13T18:54:56.197Z,3.20
2023-02-13T18:57:22.828Z,3.20
2023-02-13T18:59:49.466Z,3.10
2023-02-13T19:02:16.140Z,3.00
2023-02-13T19:04:42.797Z,2.90
2023-02-13T19:07:09.569Z,3.00
2023-02-13T19:09:40.187Z,3.00
2023-02-13T19:12:08.064Z,3.10
2023-02-13T19:14:34.772Z,3.10
2023-02-13T19:17:01.432Z,2.90
2023-02-13T19:19:28.206Z,2.90
2023-02-13T19:21:54.891Z,2.90
2023-02-13T19:24:21.675Z,2.90
2023-02-13T19:26:48.424Z,2.80
2023-02-13T19:29:15.169Z,2.70
2023-02-13T19:31:41.922Z,2.70
2023-02-13T19:34:08.674Z,2.60
2023-02-13T19:36:35.528Z,2.60
2023-02-13T19:39:04.802Z,2.60
2023-02-13T19:41:32.829Z,2.50
2023-02-13T19:44:00.333Z,2.40
2023-02-13T19:46:29.454Z,2.40
2023-02-13T19:48:56.560Z,2.40
2023-02-13T19:51:27.597Z,2.50
2023-02-13T19:54:02.567Z,2.30
2023-02-13T19:56:30.167Z,2.20
2023-02-13T19:58:57.140Z,2.30
2023-02-13T20:01:25.802Z,2.20
2023-02-13T20:03:53.381Z,2.20
2023-02-13T20:06:34.971Z,2.30
2023-02-13T20:09:04.506Z,2.30
2023-02-13T20:11:31.174Z,2.20
2023-02-13T20:14:03.987Z,2.10
2023-02-13T20:16:33.004Z,2.20
2023-02-13T20:19:09.409Z,2.20
2023-02-13T20:21:36.751Z,2.10
2023-02-13T20:24:05.082Z,2.10
2023-02-13T20:26:32.075Z,2.10
2023-02-13T20:28:59.972Z,2.10
2023-02-13T20:31:29.179Z,2.10
2023-02-13T20:33:56.542Z,2.10
2023-02-13T20:36:25.833Z,1.90
2023-02-13T20:38:54.549Z,1.90
2023-02-13T20:41:23.819Z,2.00
2023-02-13T20:43:51.087Z,1.80
2023-02-13T20:46:18.522Z,1.80
2023-02-13T20:48:47.369Z,1.70
2023-02-13T20:51:16.061Z,1.70
2023-02-13T20:53:44.128Z,1.80
2023-02-13T20:56:18.099Z,1.70
2023-02-13T20:58:46.411Z,1.70
2023-02-13T21:01:17.189Z,1.70
2023-02-13T21:03:45.459Z,1.60
2023-02-13T21:06:12.310Z,1.70
2023-02-13T21:08:39.237Z,1.80
2023-02-13T21:11:07.417Z,1.80
2023-02-13T21:13:35.216Z,1.70
2023-02-13T21:16:24.144Z,1.70
2023-02-13T21:18:54.845Z,1.70
2023-02-13T21:21:23.184Z,1.90
2023-02-13T21:23:53.952Z,1.70
2023-02-13T21:26:21.649Z,1.70
2023-02-13T21:28:49.462Z,1.60
2023-02-13T21:31:17.789Z,1.50
2023-02-13T21:33:44.682Z,1.40
2023-02-13T21:36:12.926Z,1.40
2023-02-13T21:38:40.752Z,1.40
2023-02-13T21:41:12.935Z,1.50
2023-02-13T21:43:40.064Z,1.50
2023-02-13T21:46:12.599Z,1.40
2023-02-13T21:48:40.429Z,1.40
2023-02-13T21:51:12.386Z,1.40
2023-02-13T21:53:39.657Z,1.40
2023-02-13T21:56:10.830Z,1.40
2023-02-13T21:58:39.535Z,1.20
2023-02-13T22:01:31.062Z,1.30
2023-02-13T22:04:01.217Z,1.30
2023-02-13T22:06:30.000Z,1.30
2023-02-13T22:09:04.838Z,1.50
2023-02-13T22:11:32.102Z,1.40
2023-02-13T22:14:02.507Z,1.30
2023-02-13T22:16:33.859Z,1.40
2023-02-13T22:19:01.575Z,1.40
2023-02-13T22:21:30.676Z,1.40
2023-02-13T22:23:58.181Z,1.30
2023-02-13T22:26:26.294Z,1.30
2023-02-13T22:28:54.597Z,1.10
2023-02-13T22:31:25.217Z,1.20
2023-02-13T22:34:03.036Z,1.10
2023-02-13T22:36:31.856Z,1.20
2023-02-13T22:38:58.578Z,1.10
2023-02-13T22:41:26.946Z,1.20
2023-02-13T22:43:54.089Z,1.20
2023-02-13T22:46:23.719Z,1.20
2023-02-13T22:48:52.376Z,1.10
2023-02-13T22:51:22.916Z,1.00
2023-02-13T22:53:52.076Z,1.20
2023-02-13T22:56:18.994Z,1.10
2023-02-13T22:58:45.642Z,1.00
2023-02-13T23:01:14.680Z,1.00
2023-02-13T23:03:42.303Z,1.00
2023-02-13T23:06:10.897Z,1.00
2023-02-13T23:08:38.079Z,0.80
2023-02-13T23:11:35.588Z,0.90
2023-02-13T23:14:03.408Z,1.00
2023-02-13T23:16:49.288Z,1.00
2023-02-13T23:19:16.008Z,1.00
2023-02-13T23:21:42.693Z,0.90
2023-02-13T23:24:09.355Z,0.90
2023-02-13T23:26:36.161Z,0.90
2023-02-13T23:29:03.194Z,1.00
2023-02-13T23:31:29.975Z,1.10
2023-02-13T23:33:56.893Z,1.10
2023-02-13T23:36:23.514Z,1.20
2023-02-13T23:38:50.190Z,1.30
2023-02-13T23:41:16.918Z,1.30
2023-02-13T23:43:43.598Z,1.50
2023-02-13T23:46:10.289Z,1.30
2023-02-13T23:48:37.137Z,1.50
2023-02-13T23:51:03.936Z,1.70
2023-02-13T23:53:30.609Z,1.50
2023-02-13T23:55:57.234Z,1.30
2023-02-13T23:58:23.947Z,1.40
